sensor_id;sensor_type;location;lat;lon;timestamp;temperature;humidity
15452;DHT22;7827;53.594;9.938;2022-09-01T00:00:25;14.70;99.90
15452;DHT22;7827;53.594;9.938;2022-09-01T00:02:55;14.70;99.90
15452;DHT22;7827;53.594;9.938;2022-09-01T00:05:23;14.70;99.90
15452;DHT22;7827;53.594;9.938;2022-09-01T00:07:51;14.60;99.90
15452;DHT22;7827;53.594;9.938;2022-09-01T00:10:21;14.60;99.90
15452;DHT22;7827;53.594;9.938;2022-09-01T00:12:49;14.60;99.90
15452;DHT22;7827;53.594;9.938;2022-09-01T00:15:18;14.50;99.90
15452;DHT22;7827;53.594;9.938;2022-09-01T00:17:46;14.50;99.90
15452;DHT22;7827;53.594;9.938;2022-09-01T00:20:15;14.40;99.90
15452;DHT22;7827;53.594;9.938;2022-09-01T00:22:46;14.40;99.90
15452;DHT22;7827;53.594;9.938;2022-09-01T00:25:16;14.40;99.90
15452;DHT22;7827;53.594;9.938;2022-09-01T00:27:47;14.40;99.90
15452;DHT22;7827;53.594;9.938;2022-09-01T00:30:17;14.40;99.90
15452;DHT22;7827;53.594;9.938;2022-09-01T00:32:45;14.30;99.90
15452;DHT22;7827;53.594;9.938;2022-09-01T00:35:15;14.30;99.90
15452;DHT22;7827;53.594;9.938;2022-09-01T00:37:45;14.30;99.90
15452;DHT22;7827;53.594;9.938;2022-09-01T00:40:15;14.30;99.90
15452;DHT22;7827;53.594;9.938;2022-09-01T00:42:44;14.30;99.90
15452;DHT22;7827;53.594;9.938;2022-09-01T00:45:16;14.20;99.90
15452;DHT22;7827;53.594;9.938;2022-09-01T00:47:48;14.20;99.90
15452;DHT22;7827;53.594;9.938;2022-09-01T00:50:18;14.10;99.90
15452;DHT22;7827;53.594;9.938;2022-09-01T00:52:49;14.10;99.90
15452;DHT22;7827;53.594;9.938;2022-09-01T00:55:22;14.10;99.90
15452;DHT22;7827;53.594;9.938;2022-09-01T00:57:53;14.10;99.90
15452;DHT22;7827;53.594;9.938;2022-09-01T01:00:26;14.00;99.90
15452;DHT22;7827;53.594;9.938;2022-09-01T01:02:55;14.00;99.90
15452;DHT22;7827;53.594;9.938;2022-09-01T01:05:30;14.00;99.90
15452;DHT22;7827;53.594;9.938;2022-09-01T01:08:02;14.00;99.90
15452;DHT22;7827;53.594;9.938;2022-09-01T01:10:33;13.90;99.90
15452;DHT22;7827;53.594;9.938;2022-09-01T01:13:11;13.90;99.90
15452;DHT22;7827;53.594;9.938;2022-09-01T01:15:43;13.90;99.90
15452;DHT22;7827;53.594;9.938;2022-09-01T01:18:13;13.90;99.90
15452;DHT22;7827;53.594;9.938;2022-09-01T01:20:57;13.90;99.90
15452;DHT22;7827;53.594;9.938;2022-09-01T01:23:52;13.90;99.90
15452;DHT22;7827;53.594;9.938;2022-09-01T01:26:28;13.90;99.90
15452;DHT22;7827;53.594;9.938;2022-09-01T01:28:56;13.80;99.90
15452;DHT22;7827;53.594;9.938;2022-09-01T01:31:27;13.80;99.90
15452;DHT22;7827;53.594;9.938;2022-09-01T01:33:57;13.70;99.90
15452;DHT22;7827;53.594;9.938;2022-09-01T01:36:28;13.60;99.90
15452;DHT22;7827;53.594;9.938;2022-09-01T01:39:04;13.60;99.90
15452;DHT22;7827;53.594;9.938;2022-09-01T01:41:38;13.50;99.90
15452;DHT22;7827;53.594;9.938;2022-09-01T01:44:12;13.40;99.90
15452;DHT22;7827;53.594;9.938;2022-09-01T01:46:44;13.40;99.90
15452;DHT22;7827;53.594;9.938;2022-09-01T01:49:18;13.40;99.90
15452;DHT22;7827;53.594;9.938;2022-09-01T01:51:51;13.40;99.90
15452;DHT22;7827;53.594;9.938;2022-09-01T01:54:25;13.40;99.90
15452;DHT22;7827;53.594;9.938;2022-09-01T01:57:00;13.40;99.90
15452;DHT22;7827;53.594;9.938;2022-09-01T01:59:30;13.40;99.90
15452;DHT22;7827;53.594;9.938;2022-09-01T02:01:59;13.30;99.90
15452;DHT22;7827;53.594;9.938;2022-09-01T02:04:31;13.30;99.90
15452;DHT22;7827;53.594;9.938;2022-09-01T02:07:04;13.30;99.90
15452;DHT22;7827;53.594;9.938;2022-09-01T02:09:38;13.20;99.90
15452;DHT22;7827;53.594;9.938;2022-09-01T02:12:11;13.20;99.90
15452;DHT22;7827;53.594;9.938;2022-09-01T02:14:41;13.20;99.90
15452;DHT22;7827;53.594;9.938;2022-09-01T02:17:10;13.20;99.90
15452;DHT22;7827;53.594;9.938;2022-09-01T02:19:38;13.20;99.90
15452;DHT22;7827;53.594;9.938;2022-09-01T02:22:08;13.20;99.90
15452;DHT22;7827;53.594;9.938;2022-09-01T02:24:37;13.10;99.90
15452;DHT22;7827;53.594;9.938;2022-09-01T02:27:13;13.10;99.90
15452;DHT22;7827;53.594;9.938;2022-09-01T02:29:52;13.10;99.90
15452;DHT22;7827;53.594;9.938;2022-09-01T02:32:21;13.10;99.90
15452;DHT22;7827;53.594;9.938;2022-09-01T02:34:50;13.10;99.90
15452;DHT22;7827;53.594;9.938;2022-09-01T02:37:26;13.10;99.90
15452;DHT22;7827;53.594;9.938;2022-09-01T02:39:55;13.10;99.90
15452;DHT22;7827;53.594;9.938;2022-09-01T02:42:26;13.10;99.90
15452;DHT22;7827;53.594;9.938;2022-09-01T02:44:55;13.10;99.90
15452;DHT22;7827;53.594;9.938;2022-09-01T02:47:24;13.10;99.90
15452;DHT22;7827;53.594;9.938;2022-09-01T02:49:55;13.10;99.90
15452;DHT22;7827;53.594;9.938;2022-09-01T02:52:26;13.10;99.90
15452;DHT22;7827;53.594;9.938;2022-09-01T02:54:55;13.00;99.90
15452;DHT22;7827;53.594;9.938;2022-09-01T02:57:26;13.00;99.90
15452;DHT22;7827;53.594;9.938;2022-09-01T02:59:55;13.00;99.90
15452;DHT22;7827;53.594;9.938;2022-09-01T03:02:25;13.00;99.90
15452;DHT22;7827;53.594;9.938;2022-09-01T03:04:54;12.90;99.90
15452;DHT22;7827;53.594;9.938;2022-09-01T03:07:23;12.90;99.90
15452;DHT22;7827;53.594;9.938;2022-09-01T03:09:53;12.90;99.90
15452;DHT22;7827;53.594;9.938;2022-09-01T03:12:21;12.90;99.90
15452;DHT22;7827;53.594;9.938;2022-09-01T03:14:51;12.80;99.90
15452;DHT22;7827;53.594;9.938;2022-09-01T03:17:19;12.90;99.90
15452;DHT22;7827;53.594;9.938;2022-09-01T03:19:48;12.80;99.90
15452;DHT22;7827;53.594;9.938;2022-09-01T03:22:17;12.70;99.90
15452;DHT22;7827;53.594;9.938;2022-09-01T03:24:46;12.70;99.90
15452;DHT22;7827;53.594;9.938;2022-09-01T03:27:15;12.70;99.90
15452;DHT22;7827;53.594;9.938;2022-09-01T03:29:43;12.70;99.90
15452;DHT22;7827;53.594;9.938;2022-09-01T03:32:13;12.70;99.90
15452;DHT22;7827;53.594;9.938;2022-09-01T03:34:41;12.70;99.90
15452;DHT22;7827;53.594;9.938;2022-09-01T03:37:10;12.70;99.90
15452;DHT22;7827;53.594;9.938;2022-09-01T03:39:38;12.80;99.90
15452;DHT22;7827;53.594;9.938;2022-09-01T03:42:07;12.80;99.90
15452;DHT22;7827;53.594;9.938;2022-09-01T03:44:38;12.80;99.90
15452;DHT22;7827;53.594;9.938;2022-09-01T03:47:14;12.80;99.90
15452;DHT22;7827;53.594;9.938;2022-09-01T03:49:43;12.80;99.90
15452;DHT22;7827;53.594;9.938;2022-09-01T03:52:11;12.80;99.90
15452;DHT22;7827;53.594;9.938;2022-09-01T03:54:40;12.70;99.90
15452;DHT22;7827;53.594;9.938;2022-09-01T03:57:09;12.70;99.90
15452;DHT22;7827;53.594;9.938;2022-09-01T03:59:39;12.70;99.90
15452;DHT22;7827;53.594;9.938;2022-09-01T04:02:11;12.80;99.90
15452;DHT22;7827;53.594;9.938;2022-09-01T04:04:42;12.80;99.90
15452;DHT22;7827;53.594;9.938;2022-09-01T04:07:10;12.70;99.90
15452;DHT22;7827;53.594;9.938;2022-09-01T04:09:45;12.60;99.90
15452;DHT22;7827;53.594;9.938;2022-09-01T04:12:13;12.60;99.90
15452;DHT22;7827;53.594;9.938;2022-09-01T04:14:46;12.60;99.90
15452;DHT22;7827;53.594;9.938;2022-09-01T04:17:14;12.50;99.90
15452;DHT22;7827;53.594;9.938;2022-09-01T04:20:04;12.50;99.90
15452;DHT22;7827;53.594;9.938;2022-09-01T04:22:35;12.50;99.90
15452;DHT22;7827;53.594;9.938;2022-09-01T04:25:04;12.50;99.90
15452;DHT22;7827;53.594;9.938;2022-09-01T04:27:33;12.50;99.90
15452;DHT22;7827;53.594;9.938;2022-09-01T04:30:09;12.50;99.90
15452;DHT22;7827;53.594;9.938;2022-09-01T04:32:41;12.50;99.90
15452;DHT22;7827;53.594;9.938;2022-09-01T04:35:14;12.50;99.90
15452;DHT22;7827;53.594;9.938;2022-09-01T04:37:43;12.40;99.90
15452;DHT22;7827;53.594;9.938;2022-09-01T04:40:14;12.40;99.90
15452;DHT22;7827;53.594;9.938;2022-09-01T04:42:45;12.40;99.90
15452;DHT22;7827;53.594;9.938;2022-09-01T04:45:13;12.40;99.90
15452;DHT22;7827;53.594;9.938;2022-09-01T04:47:46;12.40;99.90
15452;DHT22;7827;53.594;9.938;2022-09-01T04:50:18;12.50;99.90
15452;DHT22;7827;53.594;9.938;2022-09-01T04:53:06;12.50;99.90
15452;DHT22;7827;53.594;9.938;2022-09-01T04:55:41;12.60;99.90
15452;DHT22;7827;53.594;9.938;2022-09-01T04:58:12;12.70;99.90
15452;DHT22;7827;53.594;9.938;2022-09-01T05:00:44;12.80;99.90
15452;DHT22;7827;53.594;9.938;2022-09-01T05:03:16;12.90;99.90
15452;DHT22;7827;53.594;9.938;2022-09-01T05:05:54;13.00;99.90
15452;DHT22;7827;53.594;9.938;2022-09-01T05:08:24;13.10;99.90
15452;DHT22;7827;53.594;9.938;2022-09-01T05:10:54;13.10;99.90
15452;DHT22;7827;53.594;9.938;2022-09-01T05:13:35;13.20;99.90
15452;DHT22;7827;53.594;9.938;2022-09-01T05:16:06;13.30;99.90
15452;DHT22;7827;53.594;9.938;2022-09-01T05:18:40;13.40;99.90
15452;DHT22;7827;53.594;9.938;2022-09-01T05:21:17;13.40;99.90
15452;DHT22;7827;53.594;9.938;2022-09-01T05:23:48;13.40;99.90
15452;DHT22;7827;53.594;9.938;2022-09-01T05:26:19;13.40;99.90
15452;DHT22;7827;53.594;9.938;2022-09-01T05:28:50;13.50;99.90
15452;DHT22;7827;53.594;9.938;2022-09-01T05:31:20;13.50;99.90
15452;DHT22;7827;53.594;9.938;2022-09-01T05:33:49;13.60;99.90
15452;DHT22;7827;53.594;9.938;2022-09-01T05:36:22;13.70;99.90
15452;DHT22;7827;53.594;9.938;2022-09-01T05:38:52;13.70;99.90
15452;DHT22;7827;53.594;9.938;2022-09-01T05:41:21;13.80;99.90
15452;DHT22;7827;53.594;9.938;2022-09-01T05:43:50;13.90;99.90
15452;DHT22;7827;53.594;9.938;2022-09-01T05:46:26;13.90;99.90
15452;DHT22;7827;53.594;9.938;2022-09-01T05:48:56;14.00;99.90
15452;DHT22;7827;53.594;9.938;2022-09-01T05:51:28;14.10;99.90
15452;DHT22;7827;53.594;9.938;2022-09-01T05:54:12;14.10;99.90
15452;DHT22;7827;53.594;9.938;2022-09-01T05:56:42;14.20;99.90
15452;DHT22;7827;53.594;9.938;2022-09-01T05:59:15;14.30;99.90
15452;DHT22;7827;53.594;9.938;2022-09-01T06:01:56;14.40;99.90
15452;DHT22;7827;53.594;9.938;2022-09-01T06:04:25;14.50;99.90
15452;DHT22;7827;53.594;9.938;2022-09-01T06:07:02;14.60;99.90
15452;DHT22;7827;53.594;9.938;2022-09-01T06:09:45;14.60;99.90
15452;DHT22;7827;53.594;9.938;2022-09-01T06:12:16;14.70;99.90
15452;DHT22;7827;53.594;9.938;2022-09-01T06:14:50;14.80;99.90
15452;DHT22;7827;53.594;9.938;2022-09-01T06:17:21;15.00;99.90
15452;DHT22;7827;53.594;9.938;2022-09-01T06:19:52;15.10;99.90
15452;DHT22;7827;53.594;9.938;2022-09-01T06:22:24;15.20;99.90
15452;DHT22;7827;53.594;9.938;2022-09-01T06:24:54;15.30;99.90
15452;DHT22;7827;53.594;9.938;2022-09-01T06:27:32;15.50;99.90
15452;DHT22;7827;53.594;9.938;2022-09-01T06:30:06;15.70;99.90
15452;DHT22;7827;53.594;9.938;2022-09-01T06:32:44;15.80;99.90
15452;DHT22;7827;53.594;9.938;2022-09-01T06:35:13;16.00;99.90
15452;DHT22;7827;53.594;9.938;2022-09-01T06:37:43;16.10;99.90
15452;DHT22;7827;53.594;9.938;2022-09-01T06:40:28;16.20;99.90
15452;DHT22;7827;53.594;9.938;2022-09-01T06:42:56;16.30;99.90
15452;DHT22;7827;53.594;9.938;2022-09-01T06:45:25;16.40;99.90
15452;DHT22;7827;53.594;9.938;2022-09-01T06:47:54;16.50;99.90
15452;DHT22;7827;53.594;9.938;2022-09-01T06:50:26;16.60;99.90
15452;DHT22;7827;53.594;9.938;2022-09-01T06:53:17;16.80;99.90
15452;DHT22;7827;53.594;9.938;2022-09-01T06:56:07;16.90;99.90
15452;DHT22;7827;53.594;9.938;2022-09-01T06:58:40;17.00;99.90
15452;DHT22;7827;53.594;9.938;2022-09-01T07:01:16;17.20;99.90
15452;DHT22;7827;53.594;9.938;2022-09-01T07:03:48;17.30;99.90
15452;DHT22;7827;53.594;9.938;2022-09-01T07:06:29;17.40;99.90
15452;DHT22;7827;53.594;9.938;2022-09-01T07:09:37;17.50;99.90
15452;DHT22;7827;53.594;9.938;2022-09-01T07:12:24;17.60;99.90
15452;DHT22;7827;53.594;9.938;2022-09-01T07:14:55;17.60;99.90
15452;DHT22;7827;53.594;9.938;2022-09-01T07:17:46;17.70;99.90
15452;DHT22;7827;53.594;9.938;2022-09-01T07:20:18;17.80;99.90
15452;DHT22;7827;53.594;9.938;2022-09-01T07:22:52;18.00;99.90
15452;DHT22;7827;53.594;9.938;2022-09-01T07:25:40;18.00;99.90
15452;DHT22;7827;53.594;9.938;2022-09-01T07:28:32;18.20;99.90
15452;DHT22;7827;53.594;9.938;2022-09-01T07:31:04;18.20;99.90
15452;DHT22;7827;53.594;9.938;2022-09-01T07:33:57;18.40;99.90
15452;DHT22;7827;53.594;9.938;2022-09-01T07:36:47;18.50;99.90
15452;DHT22;7827;53.594;9.938;2022-09-01T07:39:38;18.50;99.90
15452;DHT22;7827;53.594;9.938;2022-09-01T07:42:44;18.50;99.90
15452;DHT22;7827;53.594;9.938;2022-09-01T07:46:06;18.60;99.90
15452;DHT22;7827;53.594;9.938;2022-09-01T07:48:55;18.80;99.90
15452;DHT22;7827;53.594;9.938;2022-09-01T07:51:44;18.90;99.90
15452;DHT22;7827;53.594;9.938;2022-09-01T07:54:18;19.00;99.90
15452;DHT22;7827;53.594;9.938;2022-09-01T07:56:47;19.10;99.90
15452;DHT22;7827;53.594;9.938;2022-09-01T07:59:17;19.20;99.90
15452;DHT22;7827;53.594;9.938;2022-09-01T08:02:07;19.30;99.90
15452;DHT22;7827;53.594;9.938;2022-09-01T08:04:37;19.40;99.90
15452;DHT22;7827;53.594;9.938;2022-09-01T08:07:09;19.50;99.90
15452;DHT22;7827;53.594;9.938;2022-09-01T08:09:42;19.60;99.90
15452;DHT22;7827;53.594;9.938;2022-09-01T08:12:12;19.60;99.90
15452;DHT22;7827;53.594;9.938;2022-09-01T08:14:55;19.70;99.90
15452;DHT22;7827;53.594;9.938;2022-09-01T08:17:44;19.70;99.90
15452;DHT22;7827;53.594;9.938;2022-09-01T08:20:22;19.80;99.90
15452;DHT22;7827;53.594;9.938;2022-09-01T08:22:54;19.80;99.90
15452;DHT22;7827;53.594;9.938;2022-09-01T08:25:29;19.90;99.90
15452;DHT22;7827;53.594;9.938;2022-09-01T08:27:58;19.90;99.90
15452;DHT22;7827;53.594;9.938;2022-09-01T08:30:29;19.80;99.90
15452;DHT22;7827;53.594;9.938;2022-09-01T08:32:59;19.80;99.90
15452;DHT22;7827;53.594;9.938;2022-09-01T08:35:37;19.80;99.90
15452;DHT22;7827;53.594;9.938;2022-09-01T08:38:06;19.90;99.90
15452;DHT22;7827;53.594;9.938;2022-09-01T08:40:35;20.00;99.90
15452;DHT22;7827;53.594;9.938;2022-09-01T08:43:13;20.10;99.90
15452;DHT22;7827;53.594;9.938;2022-09-01T08:45:48;20.00;99.90
15452;DHT22;7827;53.594;9.938;2022-09-01T08:48:23;20.00;99.90
15452;DHT22;7827;53.594;9.938;2022-09-01T08:51:17;20.10;99.90
15452;DHT22;7827;53.594;9.938;2022-09-01T08:54:02;20.20;99.90
15452;DHT22;7827;53.594;9.938;2022-09-01T08:56:31;20.30;99.90
15452;DHT22;7827;53.594;9.938;2022-09-01T08:59:03;20.40;99.90
15452;DHT22;7827;53.594;9.938;2022-09-01T09:01:57;20.50;99.90
15452;DHT22;7827;53.594;9.938;2022-09-01T09:04:42;20.50;99.90
15452;DHT22;7827;53.594;9.938;2022-09-01T09:07:24;20.40;99.90
15452;DHT22;7827;53.594;9.938;2022-09-01T09:10:02;20.40;99.90
15452;DHT22;7827;53.594;9.938;2022-09-01T09:12:42;20.40;99.90
15452;DHT22;7827;53.594;9.938;2022-09-01T09:15:23;20.50;99.90
15452;DHT22;7827;53.594;9.938;2022-09-01T09:17:57;20.70;99.90
15452;DHT22;7827;53.594;9.938;2022-09-01T09:20:27;20.80;99.90
15452;DHT22;7827;53.594;9.938;2022-09-01T09:22:55;20.80;99.90
15452;DHT22;7827;53.594;9.938;2022-09-01T09:25:25;21.00;99.90
15452;DHT22;7827;53.594;9.938;2022-09-01T09:27:55;21.00;99.90
15452;DHT22;7827;53.594;9.938;2022-09-01T09:30:29;20.90;99.90
15452;DHT22;7827;53.594;9.938;2022-09-01T09:33:00;21.00;99.90
15452;DHT22;7827;53.594;9.938;2022-09-01T09:35:50;21.10;99.90
15452;DHT22;7827;53.594;9.938;2022-09-01T09:38:22;21.20;99.90
15452;DHT22;7827;53.594;9.938;2022-09-01T09:41:00;21.30;99.90
15452;DHT22;7827;53.594;9.938;2022-09-01T09:43:47;21.20;99.90
15452;DHT22;7827;53.594;9.938;2022-09-01T09:46:21;21.20;99.90
15452;DHT22;7827;53.594;9.938;2022-09-01T09:49:08;21.30;99.90
15452;DHT22;7827;53.594;9.938;2022-09-01T09:51:37;21.10;99.90
15452;DHT22;7827;53.594;9.938;2022-09-01T09:54:11;21.10;99.90
15452;DHT22;7827;53.594;9.938;2022-09-01T09:56:40;21.10;99.90
15452;DHT22;7827;53.594;9.938;2022-09-01T09:59:23;20.90;99.90
15452;DHT22;7827;53.594;9.938;2022-09-01T10:02:23;20.90;99.90
15452;DHT22;7827;53.594;9.938;2022-09-01T10:04:55;20.70;99.90
15452;DHT22;7827;53.594;9.938;2022-09-01T10:07:29;20.70;99.90
15452;DHT22;7827;53.594;9.938;2022-09-01T10:09:59;20.70;99.90
15452;DHT22;7827;53.594;9.938;2022-09-01T10:12:29;20.70;99.90
15452;DHT22;7827;53.594;9.938;2022-09-01T10:15:02;20.50;99.90
15452;DHT22;7827;53.594;9.938;2022-09-01T10:17:39;20.50;99.90
15452;DHT22;7827;53.594;9.938;2022-09-01T10:20:15;20.70;99.90
15452;DHT22;7827;53.594;9.938;2022-09-01T10:22:48;21.00;99.90
15452;DHT22;7827;53.594;9.938;2022-09-01T10:25:18;21.30;99.90
15452;DHT22;7827;53.594;9.938;2022-09-01T10:27:48;21.40;99.90
15452;DHT22;7827;53.594;9.938;2022-09-01T10:30:20;21.60;99.90
15452;DHT22;7827;53.594;9.938;2022-09-01T10:32:50;21.60;99.90
15452;DHT22;7827;53.594;9.938;2022-09-01T10:35:27;21.70;99.90
15452;DHT22;7827;53.594;9.938;2022-09-01T10:37:57;21.80;99.90
15452;DHT22;7827;53.594;9.938;2022-09-01T10:40:40;22.10;99.90
15452;DHT22;7827;53.594;9.938;2022-09-01T10:43:28;22.40;99.90
15452;DHT22;7827;53.594;9.938;2022-09-01T10:46:40;22.40;99.90
15452;DHT22;7827;53.594;9.938;2022-09-01T10:52:55;22.70;99.90
15452;DHT22;7827;53.594;9.938;2022-09-01T10:55:26;22.80;99.90
15452;DHT22;7827;53.594;9.938;2022-09-01T10:58:12;22.90;99.90
15452;DHT22;7827;53.594;9.938;2022-09-01T11:01:03;23.00;99.90
15452;DHT22;7827;53.594;9.938;2022-09-01T11:03:55;23.20;99.90
15452;DHT22;7827;53.594;9.938;2022-09-01T11:06:57;23.20;99.90
15452;DHT22;7827;53.594;9.938;2022-09-01T11:10:13;23.20;99.90
15452;DHT22;7827;53.594;9.938;2022-09-01T11:16:26;22.80;99.90
15452;DHT22;7827;53.594;9.938;2022-09-01T11:19:32;22.70;99.90
15452;DHT22;7827;53.594;9.938;2022-09-01T11:22:06;22.20;99.90
15452;DHT22;7827;53.594;9.938;2022-09-01T11:24:49;21.90;99.90
15452;DHT22;7827;53.594;9.938;2022-09-01T11:28:04;21.50;99.90
15452;DHT22;7827;53.594;9.938;2022-09-01T11:30:36;21.60;99.90
15452;DHT22;7827;53.594;9.938;2022-09-01T11:36:11;21.80;99.90
15452;DHT22;7827;53.594;9.938;2022-09-01T11:38:46;21.90;99.90
15452;DHT22;7827;53.594;9.938;2022-09-01T11:41:27;22.10;99.90
15452;DHT22;7827;53.594;9.938;2022-09-01T11:43:58;22.20;99.90
15452;DHT22;7827;53.594;9.938;2022-09-01T11:46:30;22.30;99.90
15452;DHT22;7827;53.594;9.938;2022-09-01T11:49:07;22.50;99.90
15452;DHT22;7827;53.594;9.938;2022-09-01T11:51:45;22.60;99.90
15452;DHT22;7827;53.594;9.938;2022-09-01T11:54:15;22.60;99.90
15452;DHT22;7827;53.594;9.938;2022-09-01T11:56:44;22.80;99.90
15452;DHT22;7827;53.594;9.938;2022-09-01T11:59:13;22.90;99.90
15452;DHT22;7827;53.594;9.938;2022-09-01T12:01:41;23.00;99.90
15452;DHT22;7827;53.594;9.938;2022-09-01T12:04:19;23.00;99.90
15452;DHT22;7827;53.594;9.938;2022-09-01T12:06:56;22.90;99.90
15452;DHT22;7827;53.594;9.938;2022-09-01T12:09:32;22.50;99.90
15452;DHT22;7827;53.594;9.938;2022-09-01T12:12:04;22.00;99.90
15452;DHT22;7827;53.594;9.938;2022-09-01T12:14:32;21.80;99.90
15452;DHT22;7827;53.594;9.938;2022-09-01T12:17:20;21.60;99.90
15452;DHT22;7827;53.594;9.938;2022-09-01T12:19:49;21.30;99.90
15452;DHT22;7827;53.594;9.938;2022-09-01T12:22:18;21.10;99.90
15452;DHT22;7827;53.594;9.938;2022-09-01T12:24:49;21.00;99.90
15452;DHT22;7827;53.594;9.938;2022-09-01T12:27:19;21.10;99.90
15452;DHT22;7827;53.594;9.938;2022-09-01T12:29:49;21.10;99.90
15452;DHT22;7827;53.594;9.938;2022-09-01T12:32:18;21.20;99.90
15452;DHT22;7827;53.594;9.938;2022-09-01T12:34:58;21.20;99.90
15452;DHT22;7827;53.594;9.938;2022-09-01T12:37:30;21.30;99.90
15452;DHT22;7827;53.594;9.938;2022-09-01T12:39:58;21.30;99.90
15452;DHT22;7827;53.594;9.938;2022-09-01T12:42:29;21.30;99.90
15452;DHT22;7827;53.594;9.938;2022-09-01T12:45:10;21.40;99.90
15452;DHT22;7827;53.594;9.938;2022-09-01T12:47:48;21.40;99.90
15452;DHT22;7827;53.594;9.938;2022-09-01T12:50:44;21.60;99.90
15452;DHT22;7827;53.594;9.938;2022-09-01T12:53:24;21.70;99.90
15452;DHT22;7827;53.594;9.938;2022-09-01T12:55:59;21.50;99.90
15452;DHT22;7827;53.594;9.938;2022-09-01T12:58:30;21.40;99.90
15452;DHT22;7827;53.594;9.938;2022-09-01T13:01:01;21.30;99.90
15452;DHT22;7827;53.594;9.938;2022-09-01T13:03:33;21.10;99.90
15452;DHT22;7827;53.594;9.938;2022-09-01T13:06:02;21.00;99.90
15452;DHT22;7827;53.594;9.938;2022-09-01T13:08:32;20.90;99.90
15452;DHT22;7827;53.594;9.938;2022-09-01T13:11:05;21.00;99.90
15452;DHT22;7827;53.594;9.938;2022-09-01T13:13:35;21.00;99.90
15452;DHT22;7827;53.594;9.938;2022-09-01T13:16:03;21.00;99.90
15452;DHT22;7827;53.594;9.938;2022-09-01T13:18:36;21.20;99.90
15452;DHT22;7827;53.594;9.938;2022-09-01T13:21:24;21.30;99.90
15452;DHT22;7827;53.594;9.938;2022-09-01T13:23:53;21.30;99.90
15452;DHT22;7827;53.594;9.938;2022-09-01T13:26:21;21.40;99.90
15452;DHT22;7827;53.594;9.938;2022-09-01T13:28:51;21.30;99.90
15452;DHT22;7827;53.594;9.938;2022-09-01T13:31:19;21.40;99.90
15452;DHT22;7827;53.594;9.938;2022-09-01T13:33:57;21.40;99.90
15452;DHT22;7827;53.594;9.938;2022-09-01T13:36:46;21.40;99.90
15452;DHT22;7827;53.594;9.938;2022-09-01T13:39:18;21.50;99.90
15452;DHT22;7827;53.594;9.938;2022-09-01T13:41:47;21.40;99.90
15452;DHT22;7827;53.594;9.938;2022-09-01T13:44:17;21.40;99.90
15452;DHT22;7827;53.594;9.938;2022-09-01T13:46:45;21.30;99.90
15452;DHT22;7827;53.594;9.938;2022-09-01T13:49:33;21.30;99.90
15452;DHT22;7827;53.594;9.938;2022-09-01T13:52:21;21.30;99.90
15452;DHT22;7827;53.594;9.938;2022-09-01T13:54:50;21.30;99.90
15452;DHT22;7827;53.594;9.938;2022-09-01T13:57:18;21.40;99.90
15452;DHT22;7827;53.594;9.938;2022-09-01T13:59:47;21.40;99.90
15452;DHT22;7827;53.594;9.938;2022-09-01T14:02:15;21.40;99.90
15452;DHT22;7827;53.594;9.938;2022-09-01T14:04:44;21.40;99.90
15452;DHT22;7827;53.594;9.938;2022-09-01T14:07:13;21.40;99.90
15452;DHT22;7827;53.594;9.938;2022-09-01T14:09:41;21.30;99.90
15452;DHT22;7827;53.594;9.938;2022-09-01T14:12:10;21.40;99.90
15452;DHT22;7827;53.594;9.938;2022-09-01T14:14:38;21.50;99.90
15452;DHT22;7827;53.594;9.938;2022-09-01T14:17:27;21.50;99.90
15452;DHT22;7827;53.594;9.938;2022-09-01T14:19:55;21.70;99.90
15452;DHT22;7827;53.594;9.938;2022-09-01T14:22:24;21.90;99.90
15452;DHT22;7827;53.594;9.938;2022-09-01T14:24:52;22.00;99.90
15452;DHT22;7827;53.594;9.938;2022-09-01T14:27:20;22.10;99.90
15452;DHT22;7827;53.594;9.938;2022-09-01T14:29:49;22.20;99.90
15452;DHT22;7827;53.594;9.938;2022-09-01T14:32:21;22.20;99.90
15452;DHT22;7827;53.594;9.938;2022-09-01T14:34:54;22.20;99.90
15452;DHT22;7827;53.594;9.938;2022-09-01T14:37:23;22.30;99.90
15452;DHT22;7827;53.594;9.938;2022-09-01T14:39:53;22.40;99.90
15452;DHT22;7827;53.594;9.938;2022-09-01T14:42:22;22.40;99.90
15452;DHT22;7827;53.594;9.938;2022-09-01T14:44:51;22.50;99.90
15452;DHT22;7827;53.594;9.938;2022-09-01T14:47:20;22.50;99.90
15452;DHT22;7827;53.594;9.938;2022-09-01T14:49:51;22.40;99.90
15452;DHT22;7827;53.594;9.938;2022-09-01T14:52:21;22.40;99.90
15452;DHT22;7827;53.594;9.938;2022-09-01T14:54:51;22.20;99.90
15452;DHT22;7827;53.594;9.938;2022-09-01T14:57:19;21.90;99.90
15452;DHT22;7827;53.594;9.938;2022-09-01T15:00:04;21.80;99.90
15452;DHT22;7827;53.594;9.938;2022-09-01T15:02:32;21.60;99.90
15452;DHT22;7827;53.594;9.938;2022-09-01T15:05:01;21.50;99.90
15452;DHT22;7827;53.594;9.938;2022-09-01T15:07:30;21.40;99.90
15452;DHT22;7827;53.594;9.938;2022-09-01T15:09:58;21.30;99.90
15452;DHT22;7827;53.594;9.938;2022-09-01T15:12:26;21.20;99.90
15452;DHT22;7827;53.594;9.938;2022-09-01T15:14:57;21.20;99.90
15452;DHT22;7827;53.594;9.938;2022-09-01T15:17:27;21.20;99.90
15452;DHT22;7827;53.594;9.938;2022-09-01T15:19:55;21.20;99.90
15452;DHT22;7827;53.594;9.938;2022-09-01T15:22:44;21.50;99.90
15452;DHT22;7827;53.594;9.938;2022-09-01T15:25:13;21.70;99.90
15452;DHT22;7827;53.594;9.938;2022-09-01T15:27:41;21.90;99.90
15452;DHT22;7827;53.594;9.938;2022-09-01T15:30:10;22.00;99.90
15452;DHT22;7827;53.594;9.938;2022-09-01T15:32:43;22.20;99.90
15452;DHT22;7827;53.594;9.938;2022-09-01T15:35:13;22.20;99.90
15452;DHT22;7827;53.594;9.938;2022-09-01T15:37:41;22.20;99.90
15452;DHT22;7827;53.594;9.938;2022-09-01T15:40:11;21.90;99.90
15452;DHT22;7827;53.594;9.938;2022-09-01T15:42:39;21.80;99.90
15452;DHT22;7827;53.594;9.938;2022-09-01T15:45:09;21.60;99.90
15452;DHT22;7827;53.594;9.938;2022-09-01T15:47:39;21.50;99.90
15452;DHT22;7827;53.594;9.938;2022-09-01T15:50:13;21.40;99.90
15452;DHT22;7827;53.594;9.938;2022-09-01T15:52:50;21.30;99.90
15452;DHT22;7827;53.594;9.938;2022-09-01T15:55:22;21.20;99.90
15452;DHT22;7827;53.594;9.938;2022-09-01T15:57:50;21.10;99.90
15452;DHT22;7827;53.594;9.938;2022-09-01T16:00:22;21.10;99.90
15452;DHT22;7827;53.594;9.938;2022-09-01T16:02:51;21.30;99.90
15452;DHT22;7827;53.594;9.938;2022-09-01T16:05:22;21.50;99.90
15452;DHT22;7827;53.594;9.938;2022-09-01T16:07:51;21.60;99.90
15452;DHT22;7827;53.594;9.938;2022-09-01T16:10:21;21.70;99.90
15452;DHT22;7827;53.594;9.938;2022-09-01T16:12:50;21.90;99.90
15452;DHT22;7827;53.594;9.938;2022-09-01T16:15:21;21.90;99.90
15452;DHT22;7827;53.594;9.938;2022-09-01T16:18:10;22.00;99.90
15452;DHT22;7827;53.594;9.938;2022-09-01T16:20:48;22.00;99.90
15452;DHT22;7827;53.594;9.938;2022-09-01T16:23:21;22.00;99.90
15452;DHT22;7827;53.594;9.938;2022-09-01T16:25:51;22.10;99.90
15452;DHT22;7827;53.594;9.938;2022-09-01T16:28:26;22.00;99.90
15452;DHT22;7827;53.594;9.938;2022-09-01T16:30:58;22.00;99.90
15452;DHT22;7827;53.594;9.938;2022-09-01T16:33:28;21.80;99.90
15452;DHT22;7827;53.594;9.938;2022-09-01T16:36:09;21.70;99.90
15452;DHT22;7827;53.594;9.938;2022-09-01T16:38:47;21.50;99.90